createdAt,value
2022-10-20T00:00:37.228Z,0.65
2022-10-20T00:03:05.283Z,0.85
2022-10-20T00:05:33.250Z,0.80
2022-10-20T00:08:01.131Z,0.60
2022-10-20T00:10:29.022Z,0.75
2022-10-20T00:12:56.900Z,0.90
2022-10-20T00:15:24.775Z,0.98
2022-10-20T00:17:54.083Z,0.82
2022-10-20T00:20:22.057Z,0.88
2022-10-20T00:22:49.984Z,0.60
2022-10-20T00:25:18.285Z,0.77
2022-10-20T00:27:46.160Z,0.70
2022-10-20T00:30:14.060Z,0.88
2022-10-20T00:32:41.966Z,0.90
2022-10-20T00:35:11.516Z,0.50
2022-10-20T00:37:39.354Z,0.90
2022-10-20T00:40:08.284Z,0.70
2022-10-20T00:42:36.393Z,0.60
2022-10-20T00:45:04.965Z,0.82
2022-10-20T00:47:38.803Z,0.73
2022-10-20T00:50:12.931Z,0.70
2022-10-20T00:52:42.412Z,0.80
2022-10-20T00:55:12.677Z,0.60
2022-10-20T00:57:40.684Z,0.80
2022-10-20T01:00:09.435Z,0.98
2022-10-20T01:02:37.677Z,0.73
2022-10-20T01:05:06.904Z,0.75
2022-10-20T01:07:36.453Z,0.80
2022-10-20T01:10:07.130Z,0.80
2022-10-20T01:12:42.118Z,1.00
2022-10-20T01:17:46.917Z,0.63
2022-10-20T01:20:34.108Z,0.70
2022-10-20T01:23:24.210Z,0.70
2022-10-20T01:26:07.816Z,0.70
2022-10-20T01:28:43.094Z,0.80
2022-10-20T01:31:21.049Z,1.00
2022-10-20T01:33:55.551Z,0.85
2022-10-20T01:36:30.826Z,0.70
2022-10-20T01:39:04.507Z,0.73
2022-10-20T01:41:35.590Z,0.82
2022-10-20T01:44:09.740Z,0.65
2022-10-20T01:46:39.557Z,0.63
2022-10-20T01:49:08.931Z,0.85
2022-10-20T01:51:37.417Z,0.88
2022-10-20T01:54:05.400Z,0.82
2022-10-20T01:56:39.777Z,0.90
2022-10-20T01:59:30.675Z,0.70
2022-10-20T02:02:10.117Z,0.70
2022-10-20T02:04:56.873Z,0.80
2022-10-20T02:07:28.810Z,0.63
2022-10-20T02:10:02.377Z,0.60
2022-10-20T02:12:36.615Z,1.00
2022-10-20T02:15:08.355Z,1.00
2022-10-20T02:17:38.305Z,0.60
2022-10-20T02:20:08.067Z,0.90
2022-10-20T02:22:36.591Z,0.77
2022-10-20T02:25:05.293Z,0.90
2022-10-20T02:27:37.111Z,0.85
2022-10-20T02:30:09.110Z,0.75
2022-10-20T02:32:40.005Z,1.00
2022-10-20T02:35:11.712Z,0.90
2022-10-20T02:37:39.870Z,0.70
2022-10-20T02:40:09.265Z,0.80
2022-10-20T02:42:37.472Z,0.85
2022-10-20T02:45:08.108Z,1.00
2022-10-20T02:47:36.145Z,0.70
2022-10-20T02:50:04.309Z,0.90
2022-10-20T02:52:32.231Z,0.88
2022-10-20T02:55:00.244Z,0.80
2022-10-20T02:57:28.182Z,0.80
2022-10-20T02:59:56.207Z,0.73
2022-10-20T03:02:25.484Z,1.00
2022-10-20T03:04:53.381Z,0.68
2022-10-20T03:07:21.286Z,0.90
2022-10-20T03:09:49.164Z,0.70
2022-10-20T03:12:17.210Z,0.60
2022-10-20T03:14:45.418Z,0.63
2022-10-20T03:17:13.305Z,0.90
2022-10-20T03:19:42.540Z,0.80
2022-10-20T03:22:10.712Z,0.88
2022-10-20T03:24:38.583Z,1.00
2022-10-20T03:27:06.558Z,0.77
2022-10-20T03:29:34.440Z,1.10
2022-10-20T03:32:02.835Z,0.80
2022-10-20T03:34:30.769Z,0.98
2022-10-20T03:37:00.006Z,0.70
2022-10-20T03:39:27.959Z,0.88
2022-10-20T03:41:57.376Z,0.90
2022-10-20T03:44:25.424Z,0.95
2022-10-20T03:46:53.308Z,0.90
2022-10-20T03:49:21.136Z,0.70
2022-10-20T03:51:49.020Z,0.90
2022-10-20T03:54:18.230Z,0.82
2022-10-20T03:56:46.258Z,0.95
2022-10-20T03:59:14.181Z,0.80
2022-10-20T04:01:46.384Z,0.80
2022-10-20T04:04:14.547Z,0.70
2022-10-20T04:06:42.464Z,0.88
2022-10-20T04:09:10.383Z,0.82
2022-10-20T04:11:39.800Z,0.88
2022-10-20T04:14:07.683Z,0.73
2022-10-20T04:16:35.609Z,0.80
2022-10-20T04:19:03.792Z,0.90
2022-10-20T04:21:31.733Z,0.95
2022-10-20T04:23:59.622Z,0.65
2022-10-20T04:26:27.510Z,0.90
2022-10-20T04:28:58.555Z,0.93
2022-10-20T04:31:26.421Z,0.98
2022-10-20T04:33:54.391Z,0.80
2022-10-20T04:36:22.366Z,0.68
2022-10-20T04:38:50.253Z,0.90
2022-10-20T04:41:18.149Z,1.00
2022-10-20T04:43:51.166Z,0.85
2022-10-20T04:46:20.868Z,0.98
2022-10-20T04:48:48.737Z,1.00
2022-10-20T04:51:17.725Z,0.90
2022-10-20T04:53:45.642Z,0.93
2022-10-20T04:56:18.272Z,0.73
2022-10-20T04:58:48.861Z,0.80
2022-10-20T05:01:17.118Z,0.93
2022-10-20T05:03:46.420Z,0.95
2022-10-20T05:06:16.563Z,1.05
2022-10-20T05:08:46.582Z,0.82
2022-10-20T05:11:15.022Z,1.00
2022-10-20T05:13:43.392Z,1.10
2022-10-20T05:16:11.972Z,1.08
2022-10-20T05:18:41.030Z,1.10
2022-10-20T05:21:12.794Z,0.85
2022-10-20T05:23:41.401Z,1.05
2022-10-20T05:26:12.433Z,1.30
2022-10-20T05:28:40.942Z,0.82
2022-10-20T05:31:09.720Z,0.88
2022-10-20T05:33:38.944Z,1.10
2022-10-20T05:36:15.884Z,0.95
2022-10-20T05:38:45.852Z,0.95
2022-10-20T05:41:14.988Z,1.00
2022-10-20T05:43:42.936Z,0.80
2022-10-20T05:46:11.041Z,0.85
2022-10-20T05:48:42.913Z,1.10
2022-10-20T05:51:16.046Z,0.70
2022-10-20T05:53:44.456Z,0.90
2022-10-20T05:56:14.448Z,1.00
2022-10-20T05:58:42.834Z,0.88
2022-10-20T06:01:16.767Z,0.75
2022-10-20T06:03:48.000Z,1.07
2022-10-20T06:06:17.700Z,0.75
2022-10-20T06:08:46.135Z,1.05
2022-10-20T06:11:15.276Z,1.02
2022-10-20T06:13:45.074Z,0.90
2022-10-20T06:16:17.269Z,1.05
2022-10-20T06:18:45.261Z,0.90
2022-10-20T06:21:16.068Z,0.95
2022-10-20T06:23:45.859Z,1.17
2022-10-20T06:26:17.368Z,0.80
2022-10-20T06:28:46.867Z,1.08
2022-10-20T06:31:17.067Z,1.00
2022-10-20T06:33:45.230Z,0.90
2022-10-20T06:36:13.902Z,0.80
2022-10-20T06:38:41.967Z,0.90
2022-10-20T06:41:12.779Z,0.90
2022-10-20T06:43:40.817Z,0.90
2022-10-20T06:46:12.087Z,1.00
2022-10-20T06:48:40.260Z,1.00
2022-10-20T06:51:10.932Z,0.90
2022-10-20T06:53:42.706Z,0.82
2022-10-20T06:58:45.137Z,1.02
2022-10-20T07:01:15.686Z,1.20
2022-10-20T07:03:44.626Z,1.13
2022-10-20T07:06:15.928Z,1.00
2022-10-20T07:08:44.064Z,0.93
2022-10-20T07:11:16.537Z,1.05
2022-10-20T07:13:44.808Z,0.90
2022-10-20T07:16:14.742Z,0.88
2022-10-20T07:21:17.329Z,1.02
2022-10-20T07:23:46.316Z,0.95
2022-10-20T07:26:17.156Z,1.00
2022-10-20T07:28:46.623Z,1.15
2022-10-20T07:31:16.423Z,0.90
2022-10-20T07:33:44.495Z,0.80
2022-10-20T07:36:14.247Z,1.00
2022-10-20T07:38:42.161Z,1.10
2022-10-20T07:41:10.558Z,0.98
2022-10-20T07:43:40.318Z,1.30
2022-10-20T07:46:09.286Z,1.20
2022-10-20T07:48:37.458Z,0.80
2022-10-20T07:51:16.579Z,0.80
2022-10-20T07:53:45.062Z,1.08
2022-10-20T07:56:13.065Z,1.00
2022-10-20T07:58:43.194Z,1.08
2022-10-20T08:01:11.745Z,1.15
2022-10-20T08:03:40.218Z,1.05
2022-10-20T08:06:08.278Z,1.02
2022-10-20T08:08:36.239Z,1.00
2022-10-20T08:11:04.892Z,0.90
2022-10-20T08:13:33.050Z,1.10
2022-10-20T08:16:08.075Z,0.98
2022-10-20T08:21:14.432Z,1.20
2022-10-20T08:23:43.074Z,1.02
2022-10-20T08:26:11.573Z,1.00
2022-10-20T08:28:39.729Z,1.00
2022-10-20T08:31:09.413Z,1.00
2022-10-20T08:33:37.537Z,1.17
2022-10-20T08:36:07.310Z,0.90
2022-10-20T08:38:35.502Z,0.93
2022-10-20T08:41:06.230Z,1.02
2022-10-20T08:43:41.269Z,1.10
2022-10-20T08:48:41.516Z,1.13
2022-10-20T08:51:19.045Z,1.20
2022-10-20T08:53:48.782Z,0.95
2022-10-20T08:56:16.865Z,0.90
2022-10-20T08:58:46.382Z,1.10
2022-10-20T09:01:21.881Z,0.90
2022-10-20T09:03:55.802Z,1.10
2022-10-20T09:06:24.249Z,1.13
2022-10-20T09:08:53.261Z,1.10
2022-10-20T09:11:25.057Z,1.05
2022-10-20T09:13:54.634Z,1.20
2022-10-20T09:16:41.006Z,1.00
2022-10-20T09:19:19.649Z,1.02
2022-10-20T09:21:50.850Z,1.10
2022-10-20T09:24:19.644Z,0.93
2022-10-20T09:27:04.481Z,1.20
2022-10-20T09:29:37.638Z,1.10
2022-10-20T09:35:20.148Z,1.00
2022-10-20T09:37:54.845Z,0.95
2022-10-20T09:40:24.084Z,0.88
2022-10-20T09:42:54.862Z,1.40
2022-10-20T09:45:28.458Z,1.17
2022-10-20T09:48:02.553Z,1.10
2022-10-20T09:50:33.062Z,1.10
2022-10-20T09:53:02.631Z,1.08
2022-10-20T09:55:32.666Z,1.08
2022-10-20T09:58:02.919Z,1.20
2022-10-20T10:00:38.182Z,1.10
2022-10-20T10:03:22.860Z,1.10
2022-10-20T10:05:52.314Z,1.00
2022-10-20T10:08:22.113Z,1.20
2022-10-20T10:11:00.307Z,1.20
2022-10-20T10:13:31.577Z,1.20
2022-10-20T10:16:06.091Z,0.98
2022-10-20T10:18:36.935Z,1.20
2022-10-20T10:21:07.504Z,1.10
2022-10-20T10:23:40.944Z,1.10
2022-10-20T10:26:39.589Z,1.52
2022-10-20T10:29:18.696Z,0.93
2022-10-20T10:31:52.604Z,1.20
2022-10-20T10:34:56.304Z,1.08
2022-10-20T10:37:27.657Z,0.98
2022-10-20T10:39:56.794Z,0.95
2022-10-20T10:42:48.156Z,1.05
2022-10-20T10:45:22.932Z,1.30
2022-10-20T10:48:26.682Z,1.30
2022-10-20T10:50:58.966Z,0.95
2022-10-20T10:53:43.377Z,1.30
2022-10-20T10:56:21.842Z,1.02
2022-10-20T10:58:56.995Z,1.10
2022-10-20T11:01:39.676Z,1.10
2022-10-20T11:04:49.969Z,1.13
2022-10-20T11:07:29.846Z,0.90
2022-10-20T11:10:06.874Z,1.30
2022-10-20T11:12:49.405Z,1.30
2022-10-20T11:15:33.608Z,1.13
2022-10-20T11:18:08.334Z,1.48
2022-10-20T11:20:42.485Z,1.17
2022-10-20T11:23:50.246Z,1.00
2022-10-20T11:26:29.144Z,1.23
2022-10-20T11:28:58.871Z,1.05
2022-10-20T11:31:32.359Z,1.20
2022-10-20T11:34:06.727Z,1.30
2022-10-20T11:36:40.145Z,1.20
2022-10-20T11:39:15.095Z,0.90
2022-10-20T11:44:19.282Z,1.15
2022-10-20T11:46:50.067Z,0.93
2022-10-20T11:49:19.223Z,1.08
2022-10-20T11:52:12.101Z,1.20
2022-10-20T11:55:08.377Z,1.02
2022-10-20T11:57:51.089Z,1.17
2022-10-20T12:00:33.734Z,1.10
2022-10-20T12:03:34.960Z,0.95
2022-10-20T12:06:18.596Z,1.08
2022-10-20T12:09:07.075Z,1.10
2022-10-20T12:11:40.349Z,1.13
2022-10-20T12:14:20.175Z,1.05
2022-10-20T12:17:35.704Z,1.63
2022-10-20T12:20:40.661Z,1.10
2022-10-20T12:23:48.945Z,1.10
2022-10-20T12:27:01.883Z,1.00
2022-10-20T12:29:52.026Z,1.40
2022-10-20T12:32:55.041Z,1.10
2022-10-20T12:35:54.653Z,1.10
2022-10-20T12:38:24.538Z,0.98
2022-10-20T12:40:57.914Z,1.02
2022-10-20T12:43:50.481Z,0.98
2022-10-20T12:46:23.730Z,1.20
2022-10-20T12:48:57.425Z,1.27
2022-10-20T12:51:36.755Z,1.15
2022-10-20T12:54:10.086Z,1.10
2022-10-20T12:56:41.658Z,1.10
2022-10-20T12:59:35.163Z,1.20
2022-10-20T13:02:34.374Z,1.20
2022-10-20T13:05:24.230Z,1.33
2022-10-20T13:08:18.872Z,1.20
2022-10-20T13:10:47.223Z,1.40
2022-10-20T13:14:01.420Z,1.10
2022-10-20T13:16:34.017Z,1.10
2022-10-20T13:19:07.966Z,1.23
2022-10-20T13:21:36.361Z,1.25
2022-10-20T13:24:14.783Z,1.30
2022-10-20T13:26:51.098Z,1.20
2022-10-20T13:29:23.113Z,1.15
2022-10-20T13:32:05.968Z,1.30
2022-10-20T13:34:42.518Z,1.30
2022-10-20T13:37:30.288Z,1.17
2022-10-20T13:40:10.479Z,1.13
2022-10-20T13:42:49.552Z,1.40
2022-10-20T13:45:26.572Z,1.45
2022-10-20T13:48:06.749Z,1.08
2022-10-20T13:50:39.478Z,1.30
2022-10-20T13:53:18.417Z,1.30
2022-10-20T13:55:58.408Z,1.15
2022-10-20T13:58:27.396Z,1.33
2022-10-20T14:01:02.155Z,1.20
2022-10-20T14:03:31.799Z,1.35
2022-10-20T14:06:01.083Z,1.00
2022-10-20T14:08:29.092Z,1.33
2022-10-20T14:10:59.395Z,1.33
2022-10-20T14:13:31.405Z,1.50
2022-10-20T14:16:01.026Z,1.10
2022-10-20T14:18:31.663Z,1.23
2022-10-20T14:21:02.987Z,1.08
2022-10-20T14:23:36.160Z,1.30
2022-10-20T14:26:04.892Z,1.42
2022-10-20T14:28:35.281Z,1.23
2022-10-20T14:31:04.046Z,1.20
2022-10-20T14:33:35.924Z,1.30
2022-10-20T14:36:06.381Z,1.20
2022-10-20T14:38:37.854Z,1.00
2022-10-20T14:41:08.598Z,1.30
2022-10-20T14:43:40.055Z,1.20
2022-10-20T14:46:09.937Z,1.38
2022-10-20T14:48:40.001Z,1.10
2022-10-20T14:51:34.182Z,1.20
2022-10-20T14:54:32.256Z,1.23
2022-10-20T14:57:02.267Z,1.30
2022-10-20T14:59:32.596Z,1.30
2022-10-20T15:02:08.543Z,1.17
2022-10-20T15:04:37.358Z,1.25
2022-10-20T15:07:13.104Z,1.27
2022-10-20T15:09:43.537Z,1.25
2022-10-20T15:12:17.733Z,1.20
2022-10-20T15:14:48.448Z,1.13
2022-10-20T15:17:37.685Z,1.27
2022-10-20T15:20:34.576Z,1.20
2022-10-20T15:23:08.773Z,1.35
2022-10-20T15:25:43.698Z,1.30
2022-10-20T15:30:51.440Z,0.98
2022-10-20T15:33:19.373Z,1.30
2022-10-20T15:35:48.330Z,1.30
2022-10-20T15:38:17.751Z,1.33
2022-10-20T15:40:45.672Z,1.20
2022-10-20T15:43:15.225Z,1.30
2022-10-20T15:45:46.904Z,1.27
2022-10-20T15:48:14.831Z,1.30
2022-10-20T15:50:43.195Z,1.25
2022-10-20T15:53:12.829Z,1.35
2022-10-20T15:55:43.685Z,1.50
2022-10-20T15:58:11.858Z,1.30
2022-10-20T16:00:39.976Z,1.10
2022-10-20T16:03:07.968Z,1.10
2022-10-20T16:05:35.852Z,1.13
2022-10-20T16:08:03.776Z,1.35
2022-10-20T16:10:31.720Z,0.90
2022-10-20T16:13:01.015Z,1.23
2022-10-20T16:15:30.436Z,1.50
2022-10-20T16:17:59.100Z,1.27
2022-10-20T16:20:27.109Z,1.30
2022-10-20T16:22:55.059Z,0.98
2022-10-20T16:25:23.005Z,1.27
2022-10-20T16:27:50.874Z,1.08
2022-10-20T16:30:20.337Z,1.40
2022-10-20T16:32:48.265Z,1.42
2022-10-20T16:35:16.368Z,1.20
2022-10-20T16:37:44.332Z,1.20
2022-10-20T16:40:12.278Z,1.23
2022-10-20T16:42:40.142Z,1.27
2022-10-20T16:45:09.294Z,1.23
2022-10-20T16:47:39.265Z,1.20
2022-10-20T16:50:08.394Z,1.27
2022-10-20T16:52:36.351Z,1.33
2022-10-20T16:55:04.579Z,1.15
2022-10-20T16:57:38.464Z,1.20
2022-10-20T17:00:08.536Z,1.25
2022-10-20T17:02:38.049Z,1.50
2022-10-20T17:05:09.136Z,1.38
2022-10-20T17:07:38.105Z,1.25
2022-10-20T17:10:07.357Z,1.55
2022-10-20T17:12:35.331Z,1.40
2022-10-20T17:15:03.238Z,1.52
2022-10-20T17:17:31.154Z,1.55
2022-10-20T17:20:00.457Z,1.40
2022-10-20T17:22:28.329Z,1.40
2022-10-20T17:24:56.255Z,1.50
2022-10-20T17:27:24.252Z,1.30
2022-10-20T17:29:52.238Z,1.35
2022-10-20T17:32:20.206Z,1.50
2022-10-20T17:34:48.132Z,1.15
2022-10-20T17:37:17.398Z,1.58
2022-10-20T17:39:45.312Z,1.60
2022-10-20T17:42:13.187Z,1.30
2022-10-20T17:44:41.088Z,1.50
2022-10-20T17:47:09.009Z,1.60
2022-10-20T17:49:36.920Z,1.65
2022-10-20T17:52:04.912Z,1.50
2022-10-20T17:54:34.166Z,1.52
2022-10-20T17:57:02.041Z,1.33
2022-10-20T17:59:34.748Z,1.55
2022-10-20T18:02:10.917Z,1.60
2022-10-20T18:04:38.851Z,1.42
2022-10-20T18:07:06.801Z,1.80
2022-10-20T18:09:36.093Z,1.38
2022-10-20T18:12:04.167Z,1.30
2022-10-20T18:14:32.116Z,1.52
2022-10-20T18:17:00.048Z,1.45
2022-10-20T18:19:28.304Z,1.35
2022-10-20T18:21:56.224Z,1.70
2022-10-20T18:24:24.238Z,1.52
2022-10-20T18:26:53.583Z,1.60
2022-10-20T18:29:21.727Z,1.40
2022-10-20T18:31:51.243Z,1.48
2022-10-20T18:34:21.124Z,1.20
2022-10-20T18:36:49.517Z,1.30
2022-10-20T18:39:17.802Z,1.40
2022-10-20T18:41:46.364Z,1.55
2022-10-20T18:44:17.211Z,1.50
2022-10-20T18:46:46.693Z,1.50
2022-10-20T18:49:18.792Z,1.52
2022-10-20T18:51:47.515Z,1.42
2022-10-20T18:54:16.294Z,1.52
2022-10-20T18:56:44.265Z,1.60
2022-10-20T18:59:16.295Z,1.40
2022-10-20T19:01:46.063Z,1.60
2022-10-20T19:04:14.188Z,1.33
2022-10-20T19:06:43.507Z,1.45
2022-10-20T19:09:14.379Z,1.60
2022-10-20T19:11:42.954Z,1.50
2022-10-20T19:14:11.719Z,1.73
2022-10-20T19:16:40.716Z,1.25
2022-10-20T19:19:10.680Z,1.80
2022-10-20T19:21:39.065Z,1.70
2022-10-20T19:24:09.230Z,1.60
2022-10-20T19:26:40.839Z,1.65
2022-10-20T19:29:11.333Z,1.50
2022-10-20T19:31:41.674Z,1.42
2022-10-20T19:34:13.233Z,1.70
2022-10-20T19:36:42.143Z,1.58
2022-10-20T19:39:12.336Z,1.55
2022-10-20T19:41:40.412Z,1.15
2022-10-20T19:44:12.360Z,1.40
2022-10-20T19:46:40.626Z,1.40
2022-10-20T19:49:10.121Z,1.50
2022-10-20T19:51:38.895Z,1.88
2022-10-20T19:54:07.659Z,1.58
2022-10-20T19:56:35.699Z,1.80
2022-10-20T19:59:04.933Z,1.55
2022-10-20T20:01:33.420Z,1.70
2022-10-20T20:04:01.473Z,2.28
2022-10-20T20:06:30.909Z,1.50
2022-10-20T20:09:01.736Z,1.60
2022-10-20T20:11:31.650Z,1.60
2022-10-20T20:14:02.861Z,1.67
2022-10-20T20:16:31.366Z,1.23
2022-10-20T20:18:59.408Z,1.60
2022-10-20T20:21:28.244Z,1.98
2022-10-20T20:24:00.139Z,1.55
2022-10-20T20:26:29.216Z,1.65
2022-10-20T20:28:57.721Z,1.70
2022-10-20T20:31:25.960Z,1.48
2022-10-20T20:33:54.944Z,1.70
2022-10-20T20:36:22.929Z,1.60
2022-10-20T20:38:53.703Z,1.52
2022-10-20T20:41:27.050Z,1.92
2022-10-20T20:43:55.406Z,1.60
2022-10-20T20:46:26.621Z,1.80
2022-10-20T20:48:54.492Z,1.40
2022-10-20T20:51:22.442Z,1.60
2022-10-20T20:53:50.369Z,1.48
2022-10-20T20:56:21.815Z,1.90
2022-10-20T20:58:55.959Z,1.48
2022-10-20T21:01:27.308Z,1.80
2022-10-20T21:03:55.907Z,1.73
2022-10-20T21:06:33.458Z,1.58
2022-10-20T21:09:06.795Z,1.70
2022-10-20T21:11:34.805Z,1.73
2022-10-20T21:14:04.920Z,1.40
2022-10-20T21:16:34.532Z,1.77
2022-10-20T21:19:04.702Z,1.60
2022-10-20T21:21:34.741Z,1.42
2022-10-20T21:24:04.179Z,1.58
2022-10-20T21:26:32.865Z,1.70
2022-10-20T21:29:00.752Z,1.75
2022-10-20T21:31:30.801Z,1.65
2022-10-20T21:34:00.423Z,1.58
2022-10-20T21:36:30.281Z,1.55
2022-10-20T21:38:59.457Z,1.52
2022-10-20T21:41:29.020Z,1.70
2022-10-20T21:43:58.283Z,1.45
2022-10-20T21:46:30.749Z,1.85
2022-10-20T21:49:00.993Z,1.63
2022-10-20T21:51:30.558Z,1.75
2022-10-20T21:53:59.632Z,1.60
2022-10-20T21:56:27.886Z,1.75
2022-10-20T21:58:56.115Z,1.58
2022-10-20T22:01:25.824Z,1.50
2022-10-20T22:03:55.811Z,1.48
2022-10-20T22:06:25.544Z,1.40
2022-10-20T22:08:55.899Z,1.80
2022-10-20T22:11:26.045Z,1.73
2022-10-20T22:13:54.285Z,1.88
2022-10-20T22:16:25.188Z,1.80
2022-10-20T22:18:57.367Z,1.60
2022-10-20T22:21:26.221Z,1.63
2022-10-20T22:23:55.264Z,1.60
2022-10-20T22:26:25.647Z,1.67
2022-10-20T22:28:53.644Z,1.60
2022-10-20T22:31:21.654Z,1.52
2022-10-20T22:33:49.748Z,1.65
2022-10-20T22:36:19.814Z,1.85
2022-10-20T22:38:47.743Z,1.90
2022-10-20T22:41:16.265Z,1.40
2022-10-20T22:43:44.402Z,1.80
2022-10-20T22:46:12.363Z,1.60
2022-10-20T22:48:40.326Z,1.48
2022-10-20T22:51:10.000Z,1.60
2022-10-20T22:53:39.920Z,1.63
2022-10-20T22:56:10.092Z,1.58
2022-10-20T22:58:38.229Z,1.58
2022-10-20T23:01:10.650Z,1.50
2022-10-20T23:03:39.097Z,1.83
2022-10-20T23:06:08.907Z,1.65
2022-10-20T23:08:42.973Z,1.60
2022-10-20T23:11:11.539Z,1.95
2022-10-20T23:13:39.477Z,1.67
2022-10-20T23:16:08.072Z,1.65
2022-10-20T23:18:36.065Z,1.70
2022-10-20T23:21:04.144Z,1.83
2022-10-20T23:23:32.638Z,1.92
2022-10-20T23:26:04.505Z,1.50
2022-10-20T23:28:32.917Z,1.70
2022-10-20T23:31:09.217Z,1.60
2022-10-20T23:33:37.543Z,1.65
2022-10-20T23:36:05.758Z,1.80
2022-10-20T23:38:33.972Z,1.73
2022-10-20T23:41:03.340Z,1.80
2022-10-20T23:43:31.281Z,1.40
2022-10-20T23:45:59.274Z,1.92
2022-10-20T23:48:27.480Z,2.03
2022-10-20T23:50:55.861Z,1.92
2022-10-20T23:53:24.583Z,1.98
2022-10-20T23:55:52.484Z,1.70
2022-10-20T23:58:22.678Z,1.50
